createdAt,value
2019-02-05T00:02:17.220Z,26.43
2019-02-05T00:05:05.593Z,27.13
2019-02-05T00:07:53.235Z,28.93
2019-02-05T00:10:41.125Z,23.80
2019-02-05T00:13:28.828Z,24.40
2019-02-05T00:16:16.601Z,24.40
2019-02-05T00:19:04.744Z,28.60
2019-02-05T00:21:52.813Z,24.70
2019-02-05T00:24:40.616Z,24.73
2019-02-05T00:27:28.482Z,24.97
2019-02-05T00:30:17.037Z,23.93
2019-02-05T00:33:05.177Z,26.83
2019-02-05T00:35:53.092Z,26.97
2019-02-05T00:38:40.804Z,24.40
2019-02-05T00:41:28.472Z,28.00
2019-02-05T00:44:16.380Z,26.73
2019-02-05T00:47:04.702Z,29.07
2019-02-05T00:49:52.610Z,30.67
2019-02-05T00:52:40.361Z,28.73
2019-02-05T00:55:28.240Z,25.70
2019-02-05T00:58:16.368Z,25.83
2019-02-05T01:01:04.904Z,28.90
2019-02-05T01:03:52.844Z,27.83
2019-02-05T01:06:40.870Z,31.40
2019-02-05T01:09:28.724Z,25.70
2019-02-05T01:12:16.404Z,26.97
2019-02-05T01:15:16.333Z,28.50
2019-02-05T01:18:04.440Z,27.40
2019-02-05T01:20:52.065Z,29.47
2019-02-05T01:23:39.789Z,31.43
2019-02-05T01:26:29.159Z,33.70
2019-02-05T01:29:17.086Z,25.37
2019-02-05T01:32:04.613Z,28.83
2019-02-05T01:34:52.396Z,31.33
2019-02-05T01:37:40.173Z,32.40
2019-02-05T01:40:28.298Z,32.30
2019-02-05T01:43:16.152Z,28.73
2019-02-05T01:46:04.468Z,32.90
2019-02-05T01:48:52.332Z,32.10
2019-02-05T01:51:40.332Z,30.27
2019-02-05T01:54:28.504Z,28.50
2019-02-05T01:57:16.157Z,33.90
2019-02-05T02:00:06.822Z,29.77
2019-02-05T02:02:54.560Z,32.93
2019-02-05T02:05:42.536Z,35.67
2019-02-05T02:08:30.322Z,30.73
2019-02-05T02:11:18.300Z,32.50
2019-02-05T02:14:06.574Z,31.67
2019-02-05T02:16:54.188Z,34.03
2019-02-05T02:19:41.785Z,31.20
2019-02-05T02:22:29.752Z,31.37
2019-02-05T02:25:18.294Z,32.43
2019-02-05T02:28:06.201Z,31.07
2019-02-05T02:30:54.036Z,35.07
2019-02-05T02:33:41.988Z,33.97
2019-02-05T02:36:30.116Z,32.03
2019-02-05T02:39:18.188Z,33.27
2019-02-05T02:42:06.129Z,37.83
2019-02-05T02:44:53.913Z,31.90
2019-02-05T02:47:42.139Z,32.87
2019-02-05T02:50:29.719Z,34.43
2019-02-05T02:53:17.586Z,35.10
2019-02-05T02:56:05.303Z,35.30
2019-02-05T02:58:53.785Z,35.77
2019-02-05T03:01:41.414Z,35.67
2019-02-05T03:04:29.646Z,39.00
2019-02-05T03:07:29.214Z,38.73
2019-02-05T03:10:19.264Z,40.10
2019-02-05T03:13:06.933Z,37.93
2019-02-05T03:15:54.605Z,39.77
2019-02-05T03:18:42.640Z,39.10
2019-02-05T03:21:30.481Z,44.03
2019-02-05T03:24:18.525Z,42.47
2019-02-05T03:27:17.170Z,35.10
2019-02-05T03:29:55.785Z,41.00
2019-02-05T03:32:43.498Z,38.93
2019-02-05T03:35:31.393Z,36.80
2019-02-05T03:38:19.625Z,39.10
2019-02-05T03:41:07.401Z,37.27
2019-02-05T03:43:54.907Z,35.60
2019-02-05T03:46:43.019Z,39.23
2019-02-05T03:49:31.119Z,39.57
2019-02-05T03:52:20.595Z,36.13
2019-02-05T03:55:11.782Z,39.60
2019-02-05T03:58:09.039Z,41.90
2019-02-05T04:01:05.298Z,36.93
2019-02-05T04:04:17.527Z,38.63
2019-02-05T04:07:17.504Z,42.03
2019-02-05T04:10:14.292Z,37.67
2019-02-05T04:13:07.975Z,35.67
2019-02-05T04:16:08.072Z,36.70
2019-02-05T04:19:14.111Z,39.30
2019-02-05T04:22:11.170Z,41.03
2019-02-05T04:25:04.995Z,36.50
2019-02-05T04:28:04.906Z,43.83
2019-02-05T04:31:01.685Z,43.63
2019-02-05T04:34:10.275Z,39.57
2019-02-05T04:37:04.122Z,41.97
2019-02-05T04:40:09.743Z,43.80
2019-02-05T04:43:03.499Z,45.30
2019-02-05T04:46:03.372Z,43.73
2019-02-05T04:49:13.559Z,40.57
2019-02-05T04:52:24.401Z,46.70
2019-02-05T04:55:24.361Z,47.77
2019-02-05T04:58:24.957Z,43.03
2019-02-05T05:01:28.186Z,44.50
2019-02-05T05:04:21.446Z,45.77
2019-02-05T05:07:27.538Z,45.33
2019-02-05T05:10:15.395Z,47.97
2019-02-05T05:13:03.456Z,43.60
2019-02-05T05:15:51.679Z,45.07
2019-02-05T05:18:39.572Z,51.07
2019-02-05T05:21:28.062Z,45.67
2019-02-05T05:24:16.301Z,47.10
2019-02-05T05:27:05.923Z,49.47
2019-02-05T05:29:53.785Z,52.83
2019-02-05T05:32:41.390Z,47.60
2019-02-05T05:35:41.705Z,45.57
2019-02-05T05:38:18.976Z,50.37
2019-02-05T05:41:07.267Z,47.23
2019-02-05T05:43:55.530Z,46.90
2019-02-05T05:46:43.194Z,46.73
2019-02-05T05:49:30.678Z,47.10
2019-02-05T05:52:18.644Z,48.63
2019-02-05T05:55:07.333Z,52.80
2019-02-05T05:57:55.357Z,53.67
2019-02-05T06:00:43.196Z,47.53
2019-02-05T06:03:31.294Z,51.43
2019-02-05T06:06:19.171Z,48.77
2019-02-05T06:09:08.149Z,52.97
2019-02-05T06:11:56.053Z,45.27
2019-02-05T06:14:43.841Z,52.00
2019-02-05T06:17:31.494Z,51.70
2019-02-05T06:20:19.431Z,48.20
2019-02-05T06:23:07.245Z,52.27
2019-02-05T06:25:55.092Z,52.03
2019-02-05T06:28:43.039Z,52.67
2019-02-05T06:31:30.666Z,48.30
2019-02-05T06:34:18.317Z,49.40
2019-02-05T06:37:06.558Z,44.67
2019-02-05T06:39:54.352Z,46.33
2019-02-05T06:42:42.003Z,47.93
2019-02-05T06:45:29.767Z,49.93
2019-02-05T06:48:17.837Z,52.03
2019-02-05T06:51:05.690Z,50.23
2019-02-05T06:53:53.414Z,49.33
2019-02-05T06:56:42.427Z,50.47
2019-02-05T06:59:30.509Z,47.67
2019-02-05T07:02:18.245Z,50.77
2019-02-05T07:05:09.525Z,56.80
2019-02-05T07:07:57.176Z,64.33
2019-02-05T07:10:44.839Z,64.40
2019-02-05T07:13:34.395Z,60.60
2019-02-05T07:16:21.970Z,56.20
2019-02-05T07:19:09.823Z,54.70
2019-02-05T07:21:57.873Z,62.47
2019-02-05T07:24:45.972Z,55.23
2019-02-05T07:27:33.838Z,63.50
2019-02-05T07:30:26.304Z,51.03
2019-02-05T07:33:13.978Z,55.40
2019-02-05T07:36:01.828Z,52.33
2019-02-05T07:38:49.699Z,52.27
2019-02-05T07:41:37.584Z,48.43
2019-02-05T07:44:25.263Z,55.60
2019-02-05T07:47:13.121Z,61.43
2019-02-05T07:50:00.984Z,55.03
2019-02-05T07:52:49.064Z,62.20
2019-02-05T07:55:36.773Z,60.47
2019-02-05T07:58:24.808Z,57.50
2019-02-05T08:01:12.933Z,53.33
2019-02-05T08:04:00.750Z,56.97
2019-02-05T08:06:48.383Z,52.37
2019-02-05T08:09:36.128Z,50.23
2019-02-05T08:12:24.132Z,48.60
2019-02-05T08:15:15.278Z,55.67
2019-02-05T08:18:03.442Z,54.33
2019-02-05T08:20:51.388Z,58.70
2019-02-05T08:23:39.209Z,62.50
2019-02-05T08:26:26.912Z,65.47
2019-02-05T08:29:21.290Z,57.40
2019-02-05T08:32:04.102Z,55.93
2019-02-05T08:34:51.745Z,55.17
2019-02-05T08:37:39.857Z,49.93
2019-02-05T08:40:27.893Z,48.80
2019-02-05T08:43:15.767Z,46.80
2019-02-05T08:46:03.437Z,48.53
2019-02-05T08:48:51.211Z,46.37
2019-02-05T08:51:38.790Z,54.27
2019-02-05T08:54:26.856Z,47.63
2019-02-05T08:57:14.942Z,49.17
2019-02-05T09:00:02.860Z,47.30
2019-02-05T09:02:50.759Z,47.07
2019-02-05T09:05:38.492Z,49.43
2019-02-05T09:08:26.585Z,49.97
2019-02-05T09:11:14.957Z,43.73
2019-02-05T09:14:10.498Z,45.47
2019-02-05T09:16:52.235Z,48.03
2019-02-05T09:19:40.206Z,47.53
2019-02-05T09:22:28.067Z,49.47
2019-02-05T09:25:17.374Z,46.87
2019-02-05T09:28:05.632Z,50.20
2019-02-05T09:30:54.020Z,49.37
2019-02-05T09:33:41.943Z,48.77
2019-02-05T09:36:29.773Z,42.60
2019-02-05T09:39:17.657Z,41.13
2019-02-05T09:42:05.526Z,34.90
2019-02-05T09:44:53.389Z,39.13
2019-02-05T09:47:41.204Z,39.83
2019-02-05T09:50:30.987Z,41.30
2019-02-05T09:53:19.208Z,45.80
2019-02-05T09:56:07.001Z,44.73
2019-02-05T09:58:54.909Z,39.87
2019-02-05T10:01:42.865Z,35.67
2019-02-05T10:04:30.802Z,41.63
2019-02-05T10:07:18.701Z,44.33
2019-02-05T10:10:09.880Z,40.80
2019-02-05T10:12:58.073Z,39.67
2019-02-05T10:15:45.770Z,39.93
2019-02-05T10:18:33.377Z,39.43
2019-02-05T10:21:21.149Z,36.73
2019-02-05T10:24:09.147Z,39.63
2019-02-05T10:26:56.954Z,39.67
2019-02-05T10:29:44.688Z,35.33
2019-02-05T10:32:32.842Z,36.13
2019-02-05T10:35:21.069Z,39.13
2019-02-05T10:38:08.792Z,32.07
2019-02-05T10:40:56.536Z,28.63
2019-02-05T10:43:44.815Z,31.33
2019-02-05T10:46:33.015Z,31.50
2019-02-05T10:49:20.732Z,27.73
2019-02-05T10:52:08.849Z,30.50
2019-02-05T10:54:56.837Z,26.77
2019-02-05T10:57:44.920Z,28.50
2019-02-05T11:00:33.229Z,29.53
2019-02-05T11:03:21.050Z,26.27
2019-02-05T11:06:09.075Z,24.33
2019-02-05T11:08:57.397Z,24.47
2019-02-05T11:11:45.115Z,25.33
2019-02-05T11:14:33.275Z,24.17
2019-02-05T11:17:21.745Z,23.43
2019-02-05T11:20:12.737Z,19.83
2019-02-05T11:23:00.847Z,20.03
2019-02-05T11:25:48.491Z,23.07
2019-02-05T11:28:36.393Z,19.10
2019-02-05T11:31:24.237Z,21.03
2019-02-05T11:34:12.211Z,21.37
2019-02-05T11:37:00.280Z,25.50
2019-02-05T11:39:48.092Z,22.37
2019-02-05T11:42:35.851Z,18.27
2019-02-05T11:45:24.134Z,21.30
2019-02-05T11:48:14.512Z,21.00
2019-02-05T11:51:02.477Z,15.13
2019-02-05T11:53:50.341Z,18.53
2019-02-05T11:56:38.329Z,18.17
2019-02-05T11:59:26.156Z,18.90
2019-02-05T12:02:13.933Z,20.00
2019-02-05T12:05:01.612Z,23.43
2019-02-05T12:07:49.343Z,19.77
2019-02-05T12:10:37.569Z,19.30
2019-02-05T12:13:25.280Z,22.13
2019-02-05T12:16:13.446Z,20.07
2019-02-05T12:19:01.224Z,21.67
2019-02-05T12:21:48.979Z,18.83
2019-02-05T12:24:37.003Z,21.17
2019-02-05T12:27:25.076Z,16.43
2019-02-05T12:30:18.870Z,18.37
2019-02-05T12:33:06.733Z,18.20
2019-02-05T12:35:54.774Z,18.47
2019-02-05T12:38:42.755Z,16.07
2019-02-05T12:41:30.624Z,16.33
2019-02-05T12:44:18.622Z,15.43
2019-02-05T12:47:06.640Z,16.40
2019-02-05T12:49:54.601Z,16.17
2019-02-05T12:52:42.819Z,15.27
2019-02-05T12:55:30.976Z,16.60
2019-02-05T12:58:18.910Z,15.73
2019-02-05T13:01:06.840Z,16.77
2019-02-05T13:03:54.841Z,14.97
2019-02-05T13:06:42.812Z,16.70
2019-02-05T13:09:31.049Z,18.20
2019-02-05T13:12:18.741Z,16.43
2019-02-05T13:15:09.593Z,19.20
2019-02-05T13:17:57.236Z,19.23
2019-02-05T13:20:45.225Z,17.87
2019-02-05T13:23:32.895Z,20.37
2019-02-05T13:26:20.538Z,18.67
2019-02-05T13:29:08.895Z,19.23
2019-02-05T13:31:56.835Z,18.77
2019-02-05T13:34:44.866Z,20.47
2019-02-05T13:37:32.477Z,19.70
2019-02-05T13:40:22.400Z,21.43
2019-02-05T13:43:10.003Z,19.43
2019-02-05T13:45:57.956Z,20.30
2019-02-05T13:48:45.929Z,16.80
2019-02-05T13:51:33.462Z,19.17
2019-02-05T13:54:21.556Z,14.23
2019-02-05T13:57:09.550Z,16.10
2019-02-05T13:59:57.752Z,16.00
2019-02-05T14:02:45.428Z,16.20
2019-02-05T14:05:33.424Z,16.37
2019-02-05T14:08:21.556Z,13.87
2019-02-05T14:11:09.189Z,16.73
2019-02-05T14:13:57.197Z,15.83
2019-02-05T14:16:45.170Z,15.07
2019-02-05T14:19:33.554Z,16.67
2019-02-05T14:22:21.600Z,15.17
2019-02-05T14:25:14.526Z,14.87
2019-02-05T14:28:01.917Z,14.83
2019-02-05T14:30:51.728Z,17.67
2019-02-05T14:33:39.851Z,14.63
2019-02-05T14:36:27.483Z,14.83
2019-02-05T14:39:15.342Z,17.53
2019-02-05T14:42:03.604Z,15.83
2019-02-05T14:44:51.897Z,17.37
2019-02-05T14:47:39.893Z,17.20
2019-02-05T14:50:39.685Z,15.83
2019-02-05T14:53:27.352Z,18.50
2019-02-05T14:56:15.434Z,17.90
2019-02-05T14:59:03.126Z,17.23
2019-02-05T15:01:51.156Z,16.17
2019-02-05T15:04:38.928Z,17.37
2019-02-05T15:07:26.688Z,14.70
2019-02-05T15:10:17.103Z,17.20
2019-02-05T15:13:05.860Z,22.30
2019-02-05T15:15:53.813Z,20.07
2019-02-05T15:18:44.940Z,19.77
2019-02-05T15:21:31.701Z,18.80
2019-02-05T15:24:19.575Z,19.17
2019-02-05T15:27:07.493Z,21.87
2019-02-05T15:29:55.445Z,20.60
2019-02-05T15:33:01.285Z,20.50
2019-02-05T15:35:50.405Z,18.80
2019-02-05T15:38:38.237Z,19.77
2019-02-05T15:41:25.883Z,21.17
2019-02-05T15:44:13.874Z,20.93
2019-02-05T15:47:01.793Z,19.77
2019-02-05T15:49:49.760Z,22.77
2019-02-05T15:52:38.098Z,25.20
2019-02-05T15:55:25.898Z,22.13
2019-02-05T15:58:13.735Z,24.10
2019-02-05T16:01:01.779Z,20.97
2019-02-05T16:03:49.787Z,21.57
2019-02-05T16:06:37.490Z,22.73
2019-02-05T16:09:25.428Z,26.87
2019-02-05T16:12:13.248Z,23.83
2019-02-05T16:15:01.224Z,24.77
2019-02-05T16:17:49.074Z,24.10
2019-02-05T16:20:36.956Z,22.60
2019-02-05T16:23:24.909Z,25.53
2019-02-05T16:26:12.787Z,27.70
2019-02-05T16:29:00.570Z,22.53
2019-02-05T16:31:48.433Z,26.93
2019-02-05T16:34:36.288Z,35.80
2019-02-05T16:37:24.384Z,45.37
2019-02-05T16:40:18.162Z,44.27
2019-02-05T16:43:06.465Z,40.60
2019-02-05T16:45:55.005Z,36.60
2019-02-05T16:48:42.657Z,31.03
2019-02-05T16:51:30.569Z,36.67
2019-02-05T16:54:18.223Z,36.63
2019-02-05T16:57:06.331Z,46.33
2019-02-05T16:59:53.957Z,44.20
2019-02-05T17:02:42.260Z,44.63
2019-02-05T17:05:32.016Z,52.53
2019-02-05T17:08:19.884Z,57.30
2019-02-05T17:11:07.771Z,65.47
2019-02-05T17:13:55.649Z,64.30
2019-02-05T17:16:43.552Z,58.43
2019-02-05T17:19:31.905Z,48.77
2019-02-05T17:22:19.868Z,50.80
2019-02-05T17:25:11.277Z,51.37
2019-02-05T17:28:01.202Z,42.43
2019-02-05T17:30:48.972Z,42.70
2019-02-05T17:33:36.917Z,39.37
2019-02-05T17:36:24.593Z,37.80
2019-02-05T17:39:12.782Z,36.97
2019-02-05T17:42:00.296Z,41.60
2019-02-05T17:44:48.095Z,37.60
2019-02-05T17:47:36.029Z,37.03
2019-02-05T17:50:23.683Z,39.03
2019-02-05T17:53:11.612Z,40.40
2019-02-05T17:55:59.632Z,39.87
2019-02-05T17:58:47.652Z,41.87
2019-02-05T18:01:35.368Z,42.70
2019-02-05T18:04:23.040Z,43.93
2019-02-05T18:07:10.978Z,39.00
2019-02-05T18:09:58.872Z,44.50
2019-02-05T18:12:46.899Z,38.97
2019-02-05T18:15:36.757Z,41.13
2019-02-05T18:18:24.513Z,35.73
2019-02-05T18:21:12.467Z,38.13
2019-02-05T18:24:00.039Z,38.63
2019-02-05T18:26:47.820Z,37.27
2019-02-05T18:29:35.750Z,42.57
2019-02-05T18:32:23.691Z,41.73
2019-02-05T18:35:11.732Z,36.70
2019-02-05T18:38:00.622Z,38.67
2019-02-05T18:40:48.579Z,36.03
2019-02-05T18:43:36.333Z,43.77
2019-02-05T18:46:24.000Z,34.93
2019-02-05T18:49:11.783Z,38.10
2019-02-05T18:51:59.756Z,42.67
2019-02-05T18:54:47.488Z,44.57
2019-02-05T18:57:35.156Z,44.77
2019-02-05T19:00:28.166Z,48.50
2019-02-05T19:03:16.462Z,46.80
2019-02-05T19:06:04.665Z,43.90
2019-02-05T19:08:52.687Z,45.83
2019-02-05T19:11:40.276Z,43.73
2019-02-05T19:14:28.040Z,48.83
2019-02-05T19:17:16.132Z,43.00
2019-02-05T19:20:06.662Z,46.77
2019-02-05T19:22:54.351Z,44.87
2019-02-05T19:25:43.888Z,39.43
2019-02-05T19:28:33.091Z,44.43
2019-02-05T19:31:22.561Z,41.73
2019-02-05T19:34:10.250Z,41.20
2019-02-05T19:36:58.264Z,42.13
2019-02-05T19:39:45.853Z,41.20
2019-02-05T19:42:33.916Z,51.17
2019-02-05T19:45:23.382Z,43.37
2019-02-05T19:48:15.880Z,44.67
2019-02-05T19:51:04.410Z,45.57
2019-02-05T19:53:54.013Z,50.63
2019-02-05T19:56:41.408Z,54.73
2019-02-05T19:59:29.316Z,49.07
2019-02-05T20:02:17.296Z,49.20
2019-02-05T20:05:07.500Z,48.27
2019-02-05T20:07:55.148Z,46.23
2019-02-05T20:10:42.887Z,44.10
2019-02-05T20:13:40.022Z,42.83
2019-02-05T20:16:40.077Z,44.90
2019-02-05T20:19:28.152Z,40.80
2019-02-05T20:22:15.755Z,41.43
2019-02-05T20:25:04.241Z,41.00
2019-02-05T20:27:52.087Z,44.00
2019-02-05T20:30:40.191Z,46.23
2019-02-05T20:33:28.017Z,45.73
2019-02-05T20:36:15.985Z,46.70
2019-02-05T20:39:07.367Z,51.07
2019-02-05T20:41:55.968Z,48.20
2019-02-05T20:44:43.941Z,48.37
2019-02-05T20:47:31.902Z,51.97
2019-02-05T20:50:20.794Z,55.27
2019-02-05T20:53:14.064Z,56.27
2019-02-05T20:55:57.749Z,58.97
2019-02-05T20:58:45.454Z,52.67
2019-02-05T21:01:33.143Z,56.83
2019-02-05T21:04:20.848Z,51.73
2019-02-05T21:07:09.276Z,47.50
2019-02-05T21:09:57.465Z,49.33
2019-02-05T21:12:45.290Z,45.33
2019-02-05T21:15:33.071Z,48.57
2019-02-05T21:18:21.041Z,48.23
2019-02-05T21:21:08.813Z,44.70
2019-02-05T21:23:56.616Z,40.27
2019-02-05T21:26:44.865Z,52.73
2019-02-05T21:29:32.787Z,43.90
2019-02-05T21:32:21.003Z,49.27
2019-02-05T21:35:10.344Z,51.00
2019-02-05T21:38:00.348Z,51.77
2019-02-05T21:40:48.265Z,50.60
2019-02-05T21:43:36.338Z,47.77
2019-02-05T21:46:24.564Z,49.63
2019-02-05T21:49:12.253Z,51.07
2019-02-05T21:52:00.108Z,49.50
2019-02-05T21:54:47.862Z,48.03
2019-02-05T21:57:35.922Z,51.13
2019-02-05T22:00:29.039Z,56.10
2019-02-05T22:03:16.674Z,48.23
2019-02-05T22:06:05.484Z,53.57
2019-02-05T22:08:53.215Z,55.47
2019-02-05T22:11:41.137Z,52.90
2019-02-05T22:14:29.160Z,50.57
2019-02-05T22:17:18.345Z,53.40
2019-02-05T22:20:09.288Z,54.13
2019-02-05T22:22:57.142Z,49.20
2019-02-05T22:25:46.385Z,46.20
2019-02-05T22:28:34.021Z,44.33
2019-02-05T22:31:21.920Z,53.57
2019-02-05T22:34:09.832Z,55.47
2019-02-05T22:36:57.693Z,55.57
2019-02-05T22:39:45.499Z,47.40
2019-02-05T22:42:33.599Z,45.40
2019-02-05T22:45:30.088Z,50.70
2019-02-05T22:48:18.294Z,42.87
2019-02-05T22:51:06.232Z,43.00
2019-02-05T22:53:54.285Z,51.57
2019-02-05T22:56:42.541Z,46.17
2019-02-05T22:59:30.971Z,54.47
2019-02-05T23:02:19.540Z,52.33
2019-02-05T23:05:19.628Z,60.17
2019-02-05T23:08:08.778Z,54.10
2019-02-05T23:11:04.038Z,46.70
2019-02-05T23:13:51.577Z,44.67
2019-02-05T23:16:39.453Z,42.80
2019-02-05T23:19:27.549Z,46.10
2019-02-05T23:22:15.767Z,49.50
2019-02-05T23:25:05.793Z,43.53
2019-02-05T23:27:53.722Z,51.60
2019-02-05T23:30:41.575Z,46.27
2019-02-05T23:33:29.957Z,46.50
2019-02-05T23:36:18.120Z,45.80
2019-02-05T23:39:07.613Z,49.83
2019-02-05T23:41:55.596Z,49.03
2019-02-05T23:44:43.526Z,46.13
2019-02-05T23:47:31.299Z,52.23
2019-02-05T23:50:19.201Z,49.13
2019-02-05T23:53:07.036Z,47.93
2019-02-05T23:55:54.929Z,48.90
2019-02-05T23:58:43.625Z,45.83
